sensor_id;sensor_type;location;lat;lon;timestamp;P1;durP1;ratioP1;P2;durP2;ratioP2
40755;SDS011;26461;45.630;9.418;2023-07-13T00:01:04;4.60;;;3.10;;
40755;SDS011;26461;45.630;9.418;2023-07-13T00:04:20;5.67;;;2.70;;
40755;SDS011;26461;45.630;9.418;2023-07-13T00:07:32;4.43;;;2.50;;
40755;SDS011;26461;45.630;9.418;2023-07-13T00:10:43;3.20;;;3.00;;
40755;SDS011;26461;45.630;9.418;2023-07-13T00:13:56;5.17;;;2.83;;
40755;SDS011;26461;45.630;9.418;2023-07-13T00:17:06;3.27;;;2.70;;
40755;SDS011;26461;45.630;9.418;2023-07-13T00:20:17;4.20;;;2.80;;
40755;SDS011;26461;45.630;9.418;2023-07-13T00:23:27;5.87;;;3.20;;
40755;SDS011;26461;45.630;9.418;2023-07-13T00:26:40;4.30;;;2.77;;
40755;SDS011;26461;45.630;9.418;2023-07-13T00:29:54;3.60;;;2.57;;
40755;SDS011;26461;45.630;9.418;2023-07-13T00:33:05;7.30;;;3.23;;
40755;SDS011;26461;45.630;9.418;2023-07-13T00:36:15;6.13;;;3.33;;
40755;SDS011;26461;45.630;9.418;2023-07-13T00:39:25;5.43;;;2.93;;
40755;SDS011;26461;45.630;9.418;2023-07-13T00:42:35;3.70;;;3.10;;
40755;SDS011;26461;45.630;9.418;2023-07-13T00:48:57;5.73;;;2.93;;
40755;SDS011;26461;45.630;9.418;2023-07-13T00:52:10;5.60;;;2.53;;
40755;SDS011;26461;45.630;9.418;2023-07-13T00:55:21;5.60;;;3.40;;
40755;SDS011;26461;45.630;9.418;2023-07-13T00:58:32;5.87;;;2.70;;
40755;SDS011;26461;45.630;9.418;2023-07-13T01:01:44;3.40;;;2.87;;
40755;SDS011;26461;45.630;9.418;2023-07-13T01:04:55;5.00;;;2.87;;
40755;SDS011;26461;45.630;9.418;2023-07-13T01:08:07;4.57;;;2.87;;
40755;SDS011;26461;45.630;9.418;2023-07-13T01:11:18;5.40;;;3.60;;
40755;SDS011;26461;45.630;9.418;2023-07-13T01:14:31;6.73;;;2.97;;
40755;SDS011;26461;45.630;9.418;2023-07-13T01:17:41;3.83;;;3.20;;
40755;SDS011;26461;45.630;9.418;2023-07-13T01:20:55;4.67;;;3.27;;
40755;SDS011;26461;45.630;9.418;2023-07-13T01:24:10;6.50;;;3.10;;
40755;SDS011;26461;45.630;9.418;2023-07-13T01:27:21;4.37;;;4.10;;
40755;SDS011;26461;45.630;9.418;2023-07-13T01:30:35;11.20;;;3.67;;
40755;SDS011;26461;45.630;9.418;2023-07-13T01:33:49;6.00;;;3.33;;
40755;SDS011;26461;45.630;9.418;2023-07-13T01:36:59;3.10;;;2.90;;
40755;SDS011;26461;45.630;9.418;2023-07-13T01:40:10;4.40;;;3.20;;
40755;SDS011;26461;45.630;9.418;2023-07-13T01:43:18;2.90;;;2.60;;
40755;SDS011;26461;45.630;9.418;2023-07-13T01:46:34;4.87;;;3.40;;
40755;SDS011;26461;45.630;9.418;2023-07-13T01:49:39;4.40;;;3.77;;
40755;SDS011;26461;45.630;9.418;2023-07-13T01:52:50;9.07;;;3.40;;
40755;SDS011;26461;45.630;9.418;2023-07-13T01:56:00;7.20;;;3.40;;
40755;SDS011;26461;45.630;9.418;2023-07-13T01:59:11;5.50;;;3.53;;
40755;SDS011;26461;45.630;9.418;2023-07-13T02:02:21;4.90;;;3.07;;
40755;SDS011;26461;45.630;9.418;2023-07-13T02:05:31;3.60;;;2.93;;
40755;SDS011;26461;45.630;9.418;2023-07-13T02:08:41;3.13;;;3.00;;
40755;SDS011;26461;45.630;9.418;2023-07-13T02:11:53;4.83;;;3.47;;
40755;SDS011;26461;45.630;9.418;2023-07-13T02:14:58;4.27;;;3.80;;
40755;SDS011;26461;45.630;9.418;2023-07-13T02:18:03;3.60;;;3.20;;
40755;SDS011;26461;45.630;9.418;2023-07-13T02:21:08;6.83;;;3.60;;
40755;SDS011;26461;45.630;9.418;2023-07-13T02:24:18;5.67;;;3.37;;
40755;SDS011;26461;45.630;9.418;2023-07-13T02:27:31;4.97;;;4.03;;
40755;SDS011;26461;45.630;9.418;2023-07-13T02:30:41;4.00;;;3.60;;
40755;SDS011;26461;45.630;9.418;2023-07-13T02:33:52;8.50;;;3.50;;
40755;SDS011;26461;45.630;9.418;2023-07-13T02:37:02;3.50;;;3.03;;
40755;SDS011;26461;45.630;9.418;2023-07-13T02:40:13;5.23;;;3.17;;
40755;SDS011;26461;45.630;9.418;2023-07-13T02:43:23;6.97;;;3.30;;
40755;SDS011;26461;45.630;9.418;2023-07-13T02:46:37;4.20;;;2.83;;
40755;SDS011;26461;45.630;9.418;2023-07-13T02:49:47;6.43;;;3.27;;
40755;SDS011;26461;45.630;9.418;2023-07-13T02:52:57;6.07;;;3.60;;
40755;SDS011;26461;45.630;9.418;2023-07-13T02:56:08;5.80;;;3.43;;
40755;SDS011;26461;45.630;9.418;2023-07-13T02:59:20;5.70;;;3.63;;
40755;SDS011;26461;45.630;9.418;2023-07-13T03:02:31;3.97;;;3.63;;
40755;SDS011;26461;45.630;9.418;2023-07-13T03:05:43;4.53;;;3.33;;
40755;SDS011;26461;45.630;9.418;2023-07-13T03:08:57;4.30;;;3.20;;
40755;SDS011;26461;45.630;9.418;2023-07-13T03:12:09;3.13;;;2.80;;
40755;SDS011;26461;45.630;9.418;2023-07-13T03:15:19;2.93;;;2.73;;
40755;SDS011;26461;45.630;9.418;2023-07-13T03:18:27;5.37;;;3.53;;
40755;SDS011;26461;45.630;9.418;2023-07-13T03:21:41;2.77;;;2.53;;
40755;SDS011;26461;45.630;9.418;2023-07-13T03:24:51;5.20;;;2.87;;
40755;SDS011;26461;45.630;9.418;2023-07-13T03:28:01;6.57;;;3.90;;
40755;SDS011;26461;45.630;9.418;2023-07-13T03:31:13;4.10;;;2.90;;
40755;SDS011;26461;45.630;9.418;2023-07-13T03:34:31;4.60;;;3.97;;
40755;SDS011;26461;45.630;9.418;2023-07-13T03:37:43;8.00;;;4.03;;
40755;SDS011;26461;45.630;9.418;2023-07-13T03:40:57;5.03;;;3.00;;
40755;SDS011;26461;45.630;9.418;2023-07-13T03:44:08;3.47;;;2.40;;
40755;SDS011;26461;45.630;9.418;2023-07-13T03:47:19;3.60;;;2.50;;
40755;SDS011;26461;45.630;9.418;2023-07-13T03:50:25;4.73;;;2.50;;
40755;SDS011;26461;45.630;9.418;2023-07-13T03:53:37;2.97;;;2.70;;
40755;SDS011;26461;45.630;9.418;2023-07-13T03:56:43;2.90;;;2.10;;
40755;SDS011;26461;45.630;9.418;2023-07-13T03:59:55;2.13;;;2.03;;
40755;SDS011;26461;45.630;9.418;2023-07-13T04:03:06;2.37;;;2.17;;
40755;SDS011;26461;45.630;9.418;2023-07-13T04:06:13;4.80;;;2.50;;
40755;SDS011;26461;45.630;9.418;2023-07-13T04:09:28;3.83;;;2.67;;
40755;SDS011;26461;45.630;9.418;2023-07-13T04:12:33;4.47;;;3.13;;
40755;SDS011;26461;45.630;9.418;2023-07-13T04:15:45;3.13;;;1.80;;
40755;SDS011;26461;45.630;9.418;2023-07-13T04:18:55;2.87;;;2.37;;
40755;SDS011;26461;45.630;9.418;2023-07-13T04:22:09;3.40;;;2.33;;
40755;SDS011;26461;45.630;9.418;2023-07-13T04:25:14;2.90;;;2.50;;
40755;SDS011;26461;45.630;9.418;2023-07-13T04:28:20;2.00;;;1.90;;
40755;SDS011;26461;45.630;9.418;2023-07-13T04:31:32;3.30;;;2.30;;
40755;SDS011;26461;45.630;9.418;2023-07-13T04:34:43;3.27;;;2.20;;
40755;SDS011;26461;45.630;9.418;2023-07-13T04:37:51;3.20;;;2.37;;
40755;SDS011;26461;45.630;9.418;2023-07-13T04:41:03;3.60;;;2.57;;
40755;SDS011;26461;45.630;9.418;2023-07-13T04:44:15;3.80;;;3.23;;
40755;SDS011;26461;45.630;9.418;2023-07-13T04:47:25;4.50;;;2.77;;
40755;SDS011;26461;45.630;9.418;2023-07-13T04:50:30;4.80;;;2.40;;
40755;SDS011;26461;45.630;9.418;2023-07-13T04:53:40;2.93;;;2.70;;
40755;SDS011;26461;45.630;9.418;2023-07-13T04:56:46;6.13;;;3.10;;
40755;SDS011;26461;45.630;9.418;2023-07-13T04:59:59;6.03;;;2.77;;
40755;SDS011;26461;45.630;9.418;2023-07-13T05:03:10;6.13;;;2.70;;
40755;SDS011;26461;45.630;9.418;2023-07-13T05:06:20;5.70;;;2.77;;
40755;SDS011;26461;45.630;9.418;2023-07-13T05:09:26;4.00;;;2.40;;
40755;SDS011;26461;45.630;9.418;2023-07-13T05:12:36;3.80;;;2.80;;
40755;SDS011;26461;45.630;9.418;2023-07-13T05:15:52;4.73;;;2.67;;
40755;SDS011;26461;45.630;9.418;2023-07-13T05:19:01;7.07;;;2.93;;
40755;SDS011;26461;45.630;9.418;2023-07-13T05:22:12;4.00;;;2.87;;
40755;SDS011;26461;45.630;9.418;2023-07-13T05:25:22;2.37;;;2.20;;
40755;SDS011;26461;45.630;9.418;2023-07-13T05:28:29;4.00;;;2.63;;
40755;SDS011;26461;45.630;9.418;2023-07-13T05:31:40;2.70;;;1.97;;
40755;SDS011;26461;45.630;9.418;2023-07-13T05:34:46;3.67;;;2.10;;
40755;SDS011;26461;45.630;9.418;2023-07-13T05:37:56;3.17;;;2.50;;
40755;SDS011;26461;45.630;9.418;2023-07-13T05:41:07;6.47;;;1.93;;
40755;SDS011;26461;45.630;9.418;2023-07-13T05:44:13;2.53;;;2.23;;
40755;SDS011;26461;45.630;9.418;2023-07-13T05:47:23;2.60;;;2.30;;
40755;SDS011;26461;45.630;9.418;2023-07-13T05:50:33;2.67;;;2.50;;
40755;SDS011;26461;45.630;9.418;2023-07-13T05:53:49;1.93;;;1.90;;
40755;SDS011;26461;45.630;9.418;2023-07-13T05:56:59;3.90;;;2.17;;
40755;SDS011;26461;45.630;9.418;2023-07-13T06:00:10;2.70;;;2.57;;
40755;SDS011;26461;45.630;9.418;2023-07-13T06:03:20;4.20;;;2.80;;
40755;SDS011;26461;45.630;9.418;2023-07-13T06:06:30;3.03;;;2.10;;
40755;SDS011;26461;45.630;9.418;2023-07-13T06:09:46;3.07;;;2.50;;
40755;SDS011;26461;45.630;9.418;2023-07-13T06:12:56;2.70;;;2.23;;
40755;SDS011;26461;45.630;9.418;2023-07-13T06:16:07;2.97;;;2.13;;
40755;SDS011;26461;45.630;9.418;2023-07-13T06:19:18;3.00;;;2.03;;
40755;SDS011;26461;45.630;9.418;2023-07-13T06:22:29;3.93;;;2.20;;
40755;SDS011;26461;45.630;9.418;2023-07-13T06:25:39;4.37;;;2.30;;
40755;SDS011;26461;45.630;9.418;2023-07-13T06:28:49;3.03;;;2.00;;
40755;SDS011;26461;45.630;9.418;2023-07-13T06:31:55;2.53;;;2.37;;
40755;SDS011;26461;45.630;9.418;2023-07-13T06:35:05;4.27;;;2.53;;
40755;SDS011;26461;45.630;9.418;2023-07-13T06:38:15;4.27;;;2.80;;
40755;SDS011;26461;45.630;9.418;2023-07-13T06:41:26;3.23;;;2.87;;
40755;SDS011;26461;45.630;9.418;2023-07-13T06:44:31;6.67;;;2.10;;
40755;SDS011;26461;45.630;9.418;2023-07-13T06:47:41;5.30;;;2.93;;
40755;SDS011;26461;45.630;9.418;2023-07-13T06:50:52;3.93;;;2.47;;
40755;SDS011;26461;45.630;9.418;2023-07-13T06:54:03;6.77;;;2.77;;
40755;SDS011;26461;45.630;9.418;2023-07-13T06:57:13;3.43;;;3.23;;
40755;SDS011;26461;45.630;9.418;2023-07-13T07:00:18;2.70;;;2.50;;
40755;SDS011;26461;45.630;9.418;2023-07-13T07:03:29;4.03;;;2.33;;
40755;SDS011;26461;45.630;9.418;2023-07-13T07:06:39;31.37;;;6.23;;
40755;SDS011;26461;45.630;9.418;2023-07-13T07:09:49;3.60;;;2.40;;
40755;SDS011;26461;45.630;9.418;2023-07-13T07:12:55;3.60;;;2.20;;
40755;SDS011;26461;45.630;9.418;2023-07-13T07:16:05;4.17;;;2.53;;
40755;SDS011;26461;45.630;9.418;2023-07-13T07:19:16;4.20;;;2.60;;
40755;SDS011;26461;45.630;9.418;2023-07-13T07:22:26;4.73;;;3.13;;
40755;SDS011;26461;45.630;9.418;2023-07-13T07:25:37;2.50;;;2.37;;
40755;SDS011;26461;45.630;9.418;2023-07-13T07:28:51;2.93;;;2.10;;
40755;SDS011;26461;45.630;9.418;2023-07-13T07:32:02;2.27;;;2.07;;
40755;SDS011;26461;45.630;9.418;2023-07-13T07:35:07;2.50;;;2.27;;
40755;SDS011;26461;45.630;9.418;2023-07-13T07:38:17;6.60;;;2.47;;
40755;SDS011;26461;45.630;9.418;2023-07-13T07:41:28;3.10;;;2.63;;
40755;SDS011;26461;45.630;9.418;2023-07-13T07:44:40;3.07;;;2.30;;
40755;SDS011;26461;45.630;9.418;2023-07-13T07:47:50;3.40;;;2.83;;
40755;SDS011;26461;45.630;9.418;2023-07-13T07:51:01;2.23;;;2.03;;
40755;SDS011;26461;45.630;9.418;2023-07-13T07:54:07;4.97;;;2.67;;
40755;SDS011;26461;45.630;9.418;2023-07-13T07:57:13;2.90;;;2.60;;
40755;SDS011;26461;45.630;9.418;2023-07-13T08:00:23;3.33;;;2.30;;
40755;SDS011;26461;45.630;9.418;2023-07-13T08:03:29;3.10;;;2.40;;
40755;SDS011;26461;45.630;9.418;2023-07-13T08:06:40;3.27;;;2.30;;
40755;SDS011;26461;45.630;9.418;2023-07-13T08:09:53;5.00;;;2.93;;
40755;SDS011;26461;45.630;9.418;2023-07-13T08:13:04;2.73;;;2.50;;
40755;SDS011;26461;45.630;9.418;2023-07-13T08:16:15;3.80;;;2.87;;
40755;SDS011;26461;45.630;9.418;2023-07-13T08:19:25;2.67;;;2.50;;
40755;SDS011;26461;45.630;9.418;2023-07-13T08:22:36;4.03;;;2.57;;
40755;SDS011;26461;45.630;9.418;2023-07-13T08:25:41;2.37;;;2.17;;
40755;SDS011;26461;45.630;9.418;2023-07-13T08:28:52;3.70;;;2.67;;
40755;SDS011;26461;45.630;9.418;2023-07-13T08:32:04;4.93;;;2.67;;
40755;SDS011;26461;45.630;9.418;2023-07-13T08:35:16;6.13;;;3.60;;
40755;SDS011;26461;45.630;9.418;2023-07-13T08:38:27;5.37;;;2.87;;
40755;SDS011;26461;45.630;9.418;2023-07-13T08:41:37;4.33;;;2.90;;
40755;SDS011;26461;45.630;9.418;2023-07-13T08:48:26;3.03;;;2.60;;
40755;SDS011;26461;45.630;9.418;2023-07-13T08:51:53;6.57;;;2.90;;
40755;SDS011;26461;45.630;9.418;2023-07-13T08:58:28;2.93;;;2.73;;
40755;SDS011;26461;45.630;9.418;2023-07-13T09:05:27;10.57;;;3.33;;
40755;SDS011;26461;45.630;9.418;2023-07-13T09:08:56;3.30;;;2.77;;
40755;SDS011;26461;45.630;9.418;2023-07-13T09:15:41;3.73;;;2.63;;
40755;SDS011;26461;45.630;9.418;2023-07-13T09:18:56;3.00;;;2.67;;
40755;SDS011;26461;45.630;9.418;2023-07-13T09:22:15;5.60;;;3.50;;
40755;SDS011;26461;45.630;9.418;2023-07-13T09:25:30;7.80;;;3.60;;
40755;SDS011;26461;45.630;9.418;2023-07-13T09:28:45;2.80;;;2.30;;
40755;SDS011;26461;45.630;9.418;2023-07-13T09:32:03;5.13;;;2.80;;
40755;SDS011;26461;45.630;9.418;2023-07-13T09:35:21;11.00;;;2.90;;
40755;SDS011;26461;45.630;9.418;2023-07-13T09:38:37;4.23;;;3.43;;
40755;SDS011;26461;45.630;9.418;2023-07-13T09:41:49;8.93;;;2.90;;
40755;SDS011;26461;45.630;9.418;2023-07-13T09:45:17;4.43;;;2.87;;
40755;SDS011;26461;45.630;9.418;2023-07-13T09:48:37;3.50;;;3.17;;
40755;SDS011;26461;45.630;9.418;2023-07-13T09:51:47;5.07;;;3.70;;
40755;SDS011;26461;45.630;9.418;2023-07-13T09:54:58;3.80;;;3.10;;
40755;SDS011;26461;45.630;9.418;2023-07-13T09:58:05;4.43;;;3.20;;
40755;SDS011;26461;45.630;9.418;2023-07-13T10:01:35;4.00;;;3.07;;
40755;SDS011;26461;45.630;9.418;2023-07-13T10:04:53;3.70;;;3.50;;
40755;SDS011;26461;45.630;9.418;2023-07-13T10:08:24;8.80;;;3.90;;
40755;SDS011;26461;45.630;9.418;2023-07-13T10:11:40;3.43;;;3.23;;
40755;SDS011;26461;45.630;9.418;2023-07-13T10:14:52;3.07;;;2.73;;
40755;SDS011;26461;45.630;9.418;2023-07-13T10:18:00;3.70;;;3.23;;
40755;SDS011;26461;45.630;9.418;2023-07-13T10:24:27;6.00;;;3.80;;
40755;SDS011;26461;45.630;9.418;2023-07-13T10:27:39;4.70;;;3.80;;
40755;SDS011;26461;45.630;9.418;2023-07-13T10:30:45;5.87;;;3.60;;
40755;SDS011;26461;45.630;9.418;2023-07-13T10:33:56;9.87;;;3.50;;
40755;SDS011;26461;45.630;9.418;2023-07-13T10:37:07;4.37;;;3.57;;
40755;SDS011;26461;45.630;9.418;2023-07-13T10:40:33;3.60;;;2.90;;
40755;SDS011;26461;45.630;9.418;2023-07-13T10:43:54;10.23;;;3.43;;
40755;SDS011;26461;45.630;9.418;2023-07-13T10:47:13;6.70;;;4.40;;
40755;SDS011;26461;45.630;9.418;2023-07-13T10:50:28;6.63;;;4.10;;
40755;SDS011;26461;45.630;9.418;2023-07-13T10:53:42;5.07;;;4.30;;
40755;SDS011;26461;45.630;9.418;2023-07-13T10:57:07;7.93;;;4.13;;
40755;SDS011;26461;45.630;9.418;2023-07-13T11:00:26;4.80;;;4.00;;
40755;SDS011;26461;45.630;9.418;2023-07-13T11:03:54;5.23;;;4.27;;
40755;SDS011;26461;45.630;9.418;2023-07-13T11:07:11;7.30;;;5.10;;
40755;SDS011;26461;45.630;9.418;2023-07-13T11:14:02;8.63;;;3.80;;
40755;SDS011;26461;45.630;9.418;2023-07-13T11:20:40;3.87;;;3.67;;
40755;SDS011;26461;45.630;9.418;2023-07-13T11:23:53;4.87;;;3.87;;
40755;SDS011;26461;45.630;9.418;2023-07-13T11:27:15;9.90;;;4.50;;
40755;SDS011;26461;45.630;9.418;2023-07-13T11:30:35;5.57;;;5.00;;
40755;SDS011;26461;45.630;9.418;2023-07-13T11:33:53;4.27;;;3.80;;
40755;SDS011;26461;45.630;9.418;2023-07-13T11:37:10;5.50;;;3.90;;
40755;SDS011;26461;45.630;9.418;2023-07-13T11:40:21;3.87;;;2.97;;
40755;SDS011;26461;45.630;9.418;2023-07-13T11:43:37;6.87;;;4.63;;
40755;SDS011;26461;45.630;9.418;2023-07-13T11:46:50;3.63;;;3.40;;
40755;SDS011;26461;45.630;9.418;2023-07-13T11:50:03;5.90;;;4.10;;
40755;SDS011;26461;45.630;9.418;2023-07-13T11:53:15;9.23;;;5.37;;
40755;SDS011;26461;45.630;9.418;2023-07-13T11:56:27;4.43;;;3.00;;
40755;SDS011;26461;45.630;9.418;2023-07-13T11:59:39;3.70;;;3.27;;
40755;SDS011;26461;45.630;9.418;2023-07-13T12:02:51;5.70;;;5.17;;
40755;SDS011;26461;45.630;9.418;2023-07-13T12:06:05;6.03;;;4.03;;
40755;SDS011;26461;45.630;9.418;2023-07-13T12:09:29;23.07;;;5.80;;
40755;SDS011;26461;45.630;9.418;2023-07-13T12:12:34;6.33;;;4.97;;
40755;SDS011;26461;45.630;9.418;2023-07-13T12:15:47;5.47;;;5.20;;
40755;SDS011;26461;45.630;9.418;2023-07-13T12:19:01;5.40;;;5.10;;
40755;SDS011;26461;45.630;9.418;2023-07-13T12:22:13;9.17;;;5.83;;
40755;SDS011;26461;45.630;9.418;2023-07-13T12:25:22;8.73;;;4.50;;
40755;SDS011;26461;45.630;9.418;2023-07-13T12:31:43;4.87;;;4.03;;
40755;SDS011;26461;45.630;9.418;2023-07-13T12:34:57;6.53;;;4.47;;
40755;SDS011;26461;45.630;9.418;2023-07-13T12:38:26;8.47;;;5.10;;
40755;SDS011;26461;45.630;9.418;2023-07-13T12:41:36;10.57;;;4.70;;
40755;SDS011;26461;45.630;9.418;2023-07-13T12:44:47;7.47;;;5.13;;
40755;SDS011;26461;45.630;9.418;2023-07-13T12:47:58;7.33;;;4.90;;
40755;SDS011;26461;45.630;9.418;2023-07-13T12:51:10;5.87;;;5.57;;
40755;SDS011;26461;45.630;9.418;2023-07-13T12:54:26;7.40;;;5.33;;
40755;SDS011;26461;45.630;9.418;2023-07-13T12:57:55;5.97;;;5.60;;
40755;SDS011;26461;45.630;9.418;2023-07-13T13:01:05;8.63;;;5.07;;
40755;SDS011;26461;45.630;9.418;2023-07-13T13:04:22;7.47;;;5.37;;
40755;SDS011;26461;45.630;9.418;2023-07-13T13:07:34;6.87;;;6.17;;
40755;SDS011;26461;45.630;9.418;2023-07-13T13:10:46;8.47;;;6.43;;
40755;SDS011;26461;45.630;9.418;2023-07-13T13:14:00;7.27;;;6.20;;
40755;SDS011;26461;45.630;9.418;2023-07-13T13:17:11;9.93;;;7.00;;
40755;SDS011;26461;45.630;9.418;2023-07-13T13:20:32;12.80;;;8.10;;
40755;SDS011;26461;45.630;9.418;2023-07-13T13:23:40;6.70;;;5.37;;
40755;SDS011;26461;45.630;9.418;2023-07-13T13:26:45;7.10;;;6.70;;
40755;SDS011;26461;45.630;9.418;2023-07-13T13:29:57;8.40;;;7.60;;
40755;SDS011;26461;45.630;9.418;2023-07-13T13:33:14;8.73;;;5.70;;
40755;SDS011;26461;45.630;9.418;2023-07-13T13:36:25;8.43;;;5.53;;
40755;SDS011;26461;45.630;9.418;2023-07-13T13:39:36;8.90;;;6.17;;
40755;SDS011;26461;45.630;9.418;2023-07-13T13:42:48;9.90;;;6.70;;
40755;SDS011;26461;45.630;9.418;2023-07-13T13:45:58;5.70;;;5.10;;
40755;SDS011;26461;45.630;9.418;2023-07-13T13:49:12;9.30;;;6.40;;
40755;SDS011;26461;45.630;9.418;2023-07-13T13:52:25;9.60;;;6.00;;
40755;SDS011;26461;45.630;9.418;2023-07-13T13:55:35;6.53;;;5.40;;
40755;SDS011;26461;45.630;9.418;2023-07-13T13:58:46;6.33;;;5.57;;
40755;SDS011;26461;45.630;9.418;2023-07-13T14:01:57;8.70;;;6.00;;
40755;SDS011;26461;45.630;9.418;2023-07-13T14:05:12;8.60;;;7.37;;
40755;SDS011;26461;45.630;9.418;2023-07-13T14:08:23;6.20;;;5.20;;
40755;SDS011;26461;45.630;9.418;2023-07-13T14:11:34;7.10;;;5.93;;
40755;SDS011;26461;45.630;9.418;2023-07-13T14:14:45;6.27;;;5.93;;
40755;SDS011;26461;45.630;9.418;2023-07-13T14:17:55;10.80;;;5.33;;
40755;SDS011;26461;45.630;9.418;2023-07-13T14:21:17;6.10;;;5.63;;
40755;SDS011;26461;45.630;9.418;2023-07-13T14:24:29;9.13;;;5.93;;
40755;SDS011;26461;45.630;9.418;2023-07-13T14:27:40;7.13;;;5.47;;
40755;SDS011;26461;45.630;9.418;2023-07-13T14:30:52;5.60;;;5.30;;
40755;SDS011;26461;45.630;9.418;2023-07-13T14:34:04;7.03;;;6.20;;
40755;SDS011;26461;45.630;9.418;2023-07-13T14:37:14;6.63;;;5.13;;
40755;SDS011;26461;45.630;9.418;2023-07-13T14:40:31;5.47;;;5.17;;
40755;SDS011;26461;45.630;9.418;2023-07-13T14:43:37;11.70;;;6.03;;
40755;SDS011;26461;45.630;9.418;2023-07-13T14:46:44;5.53;;;4.60;;
40755;SDS011;26461;45.630;9.418;2023-07-13T14:49:55;8.60;;;5.63;;
40755;SDS011;26461;45.630;9.418;2023-07-13T14:53:08;8.27;;;6.20;;
40755;SDS011;26461;45.630;9.418;2023-07-13T14:56:20;8.17;;;5.17;;
40755;SDS011;26461;45.630;9.418;2023-07-13T14:59:30;6.40;;;5.33;;
40755;SDS011;26461;45.630;9.418;2023-07-13T15:02:41;6.97;;;6.17;;
40755;SDS011;26461;45.630;9.418;2023-07-13T15:05:54;7.20;;;4.87;;
40755;SDS011;26461;45.630;9.418;2023-07-13T15:09:00;6.50;;;5.07;;
40755;SDS011;26461;45.630;9.418;2023-07-13T15:12:10;7.40;;;5.30;;
40755;SDS011;26461;45.630;9.418;2023-07-13T15:15:20;4.73;;;4.43;;
40755;SDS011;26461;45.630;9.418;2023-07-13T15:18:26;9.10;;;6.40;;
40755;SDS011;26461;45.630;9.418;2023-07-13T15:21:37;9.73;;;5.83;;
40755;SDS011;26461;45.630;9.418;2023-07-13T15:24:48;7.07;;;5.33;;
40755;SDS011;26461;45.630;9.418;2023-07-13T15:27:59;5.97;;;4.67;;
40755;SDS011;26461;45.630;9.418;2023-07-13T15:31:24;5.27;;;4.90;;
40755;SDS011;26461;45.630;9.418;2023-07-13T15:34:41;6.13;;;5.83;;
40755;SDS011;26461;45.630;9.418;2023-07-13T15:37:54;10.10;;;5.00;;
40755;SDS011;26461;45.630;9.418;2023-07-13T15:41:26;11.57;;;5.20;;
40755;SDS011;26461;45.630;9.418;2023-07-13T15:44:37;6.47;;;5.60;;
40755;SDS011;26461;45.630;9.418;2023-07-13T15:47:48;4.90;;;4.60;;
40755;SDS011;26461;45.630;9.418;2023-07-13T15:51:04;5.60;;;4.73;;
40755;SDS011;26461;45.630;9.418;2023-07-13T15:54:21;5.30;;;4.77;;
40755;SDS011;26461;45.630;9.418;2023-07-13T15:57:29;7.87;;;5.20;;
40755;SDS011;26461;45.630;9.418;2023-07-13T16:00:34;5.70;;;4.50;;
40755;SDS011;26461;45.630;9.418;2023-07-13T16:03:39;7.60;;;5.97;;
40755;SDS011;26461;45.630;9.418;2023-07-13T16:06:50;10.33;;;5.40;;
40755;SDS011;26461;45.630;9.418;2023-07-13T16:10:01;8.40;;;4.83;;
40755;SDS011;26461;45.630;9.418;2023-07-13T16:13:16;7.97;;;4.47;;
40755;SDS011;26461;45.630;9.418;2023-07-13T16:16:32;7.87;;;5.47;;
40755;SDS011;26461;45.630;9.418;2023-07-13T16:19:43;6.73;;;5.67;;
40755;SDS011;26461;45.630;9.418;2023-07-13T16:22:50;6.43;;;4.97;;
40755;SDS011;26461;45.630;9.418;2023-07-13T16:25:58;5.13;;;4.83;;
40755;SDS011;26461;45.630;9.418;2023-07-13T16:29:12;5.07;;;4.77;;
40755;SDS011;26461;45.630;9.418;2023-07-13T16:32:18;5.77;;;4.53;;
40755;SDS011;26461;45.630;9.418;2023-07-13T16:35:28;5.80;;;4.87;;
40755;SDS011;26461;45.630;9.418;2023-07-13T16:38:44;8.53;;;4.33;;
40755;SDS011;26461;45.630;9.418;2023-07-13T16:41:55;5.97;;;4.77;;
40755;SDS011;26461;45.630;9.418;2023-07-13T16:45:02;5.13;;;4.30;;
40755;SDS011;26461;45.630;9.418;2023-07-13T16:48:14;5.33;;;4.40;;
40755;SDS011;26461;45.630;9.418;2023-07-13T16:51:25;4.23;;;3.97;;
40755;SDS011;26461;45.630;9.418;2023-07-13T16:54:37;7.20;;;4.63;;
40755;SDS011;26461;45.630;9.418;2023-07-13T16:57:48;12.13;;;5.17;;
40755;SDS011;26461;45.630;9.418;2023-07-13T17:01:00;5.50;;;4.03;;
40755;SDS011;26461;45.630;9.418;2023-07-13T17:04:15;4.00;;;3.80;;
40755;SDS011;26461;45.630;9.418;2023-07-13T17:07:32;5.33;;;5.03;;
40755;SDS011;26461;45.630;9.418;2023-07-13T17:10:38;4.80;;;4.50;;
40755;SDS011;26461;45.630;9.418;2023-07-13T17:14:17;6.37;;;4.50;;
40755;SDS011;26461;45.630;9.418;2023-07-13T17:17:31;8.60;;;4.53;;
40755;SDS011;26461;45.630;9.418;2023-07-13T17:20:39;8.03;;;4.63;;
40755;SDS011;26461;45.630;9.418;2023-07-13T17:23:52;5.00;;;4.70;;
40755;SDS011;26461;45.630;9.418;2023-07-13T17:27:02;7.93;;;4.87;;
40755;SDS011;26461;45.630;9.418;2023-07-13T17:30:13;7.00;;;5.23;;
40755;SDS011;26461;45.630;9.418;2023-07-13T17:33:32;5.10;;;4.10;;
40755;SDS011;26461;45.630;9.418;2023-07-13T17:36:40;6.53;;;4.60;;
40755;SDS011;26461;45.630;9.418;2023-07-13T17:39:50;5.50;;;4.30;;
40755;SDS011;26461;45.630;9.418;2023-07-13T17:43:00;5.30;;;4.70;;
40755;SDS011;26461;45.630;9.418;2023-07-13T17:46:11;4.73;;;3.90;;
40755;SDS011;26461;45.630;9.418;2023-07-13T17:49:22;4.00;;;3.33;;
40755;SDS011;26461;45.630;9.418;2023-07-13T17:52:41;4.70;;;4.10;;
40755;SDS011;26461;45.630;9.418;2023-07-13T17:55:53;3.20;;;3.10;;
40755;SDS011;26461;45.630;9.418;2023-07-13T17:59:04;5.50;;;3.50;;
40755;SDS011;26461;45.630;9.418;2023-07-13T18:02:17;3.73;;;2.93;;
40755;SDS011;26461;45.630;9.418;2023-07-13T18:05:31;3.23;;;3.03;;
40755;SDS011;26461;45.630;9.418;2023-07-13T18:08:36;3.50;;;3.30;;
40755;SDS011;26461;45.630;9.418;2023-07-13T18:11:47;4.27;;;3.47;;
40755;SDS011;26461;45.630;9.418;2023-07-13T18:14:58;4.73;;;3.87;;
40755;SDS011;26461;45.630;9.418;2023-07-13T18:18:08;3.57;;;3.37;;
40755;SDS011;26461;45.630;9.418;2023-07-13T18:21:20;3.43;;;3.23;;
40755;SDS011;26461;45.630;9.418;2023-07-13T18:24:31;6.00;;;3.60;;
40755;SDS011;26461;45.630;9.418;2023-07-13T18:27:41;3.60;;;2.60;;
40755;SDS011;26461;45.630;9.418;2023-07-13T18:30:53;4.07;;;2.90;;
40755;SDS011;26461;45.630;9.418;2023-07-13T18:34:04;4.13;;;3.40;;
40755;SDS011;26461;45.630;9.418;2023-07-13T18:37:17;7.50;;;3.77;;
40755;SDS011;26461;45.630;9.418;2023-07-13T18:40:28;3.57;;;2.87;;
40755;SDS011;26461;45.630;9.418;2023-07-13T18:43:39;4.27;;;3.50;;
40755;SDS011;26461;45.630;9.418;2023-07-13T18:46:49;3.90;;;3.70;;
40755;SDS011;26461;45.630;9.418;2023-07-13T18:50:00;5.20;;;4.00;;
40755;SDS011;26461;45.630;9.418;2023-07-13T18:53:11;3.37;;;2.90;;
40755;SDS011;26461;45.630;9.418;2023-07-13T18:56:27;3.27;;;3.07;;
40755;SDS011;26461;45.630;9.418;2023-07-13T18:59:32;4.93;;;2.80;;
40755;SDS011;26461;45.630;9.418;2023-07-13T19:02:43;3.90;;;2.80;;
40755;SDS011;26461;45.630;9.418;2023-07-13T19:05:53;3.30;;;3.10;;
40755;SDS011;26461;45.630;9.418;2023-07-13T19:08:58;4.33;;;4.03;;
40755;SDS011;26461;45.630;9.418;2023-07-13T19:12:19;3.87;;;3.60;;
40755;SDS011;26461;45.630;9.418;2023-07-13T19:15:33;6.30;;;4.00;;
40755;SDS011;26461;45.630;9.418;2023-07-13T19:18:41;4.03;;;3.63;;
40755;SDS011;26461;45.630;9.418;2023-07-13T19:21:52;7.47;;;3.97;;
40755;SDS011;26461;45.630;9.418;2023-07-13T19:25:07;8.80;;;4.20;;
40755;SDS011;26461;45.630;9.418;2023-07-13T19:28:41;3.10;;;2.97;;
40755;SDS011;26461;45.630;9.418;2023-07-13T19:31:52;7.40;;;3.10;;
40755;SDS011;26461;45.630;9.418;2023-07-13T19:34:59;3.60;;;3.40;;
40755;SDS011;26461;45.630;9.418;2023-07-13T19:38:16;3.80;;;2.57;;
40755;SDS011;26461;45.630;9.418;2023-07-13T19:41:33;5.13;;;3.20;;
40755;SDS011;26461;45.630;9.418;2023-07-13T19:44:46;3.53;;;2.70;;
40755;SDS011;26461;45.630;9.418;2023-07-13T19:47:56;9.30;;;3.23;;